Flight Track Log - Related Links

Times and Time Zones

All times are in EDT time to prevent confusion due to time zone crossing. See the KAP927 flight status page for this flight to view local times or setup timezone preferences in your user account.

Time Position Orientation Groundspeed Altitude Reporting Facility
EDT Latitude Longitude Course Direction KTS MPH feet Rate Location/Type
Wed 02:32:18 PM 42.7503 -73.8453 277° West 110 127 1,100  Level Boston Center
Wed 02:33:13 PM 42.7750 -73.8628 333° Northwest 113 130 1,500 537 Climbing Boston Center
Wed 02:34:32 PM 42.8186 -73.8694 354° North 118 136 2,300 561 Climbing Boston Center
Wed 02:35:32 PM 42.8500 -73.8731 355° North 122 140 2,800 492 Climbing Boston Center
Wed 02:36:34 PM 42.8831 -73.8767 355° North 120 138 3,300 492 Climbing Boston Center
Wed 02:37:34 PM 42.9164 -73.8803 355° North 123 142 3,800 496 Climbing Boston Center
Wed 02:38:35 PM 42.9519 -73.8867 353° North 125 144 4,300 495 Climbing Boston Center
Wed 02:39:23 PM 42.9808 -73.8931 351° North 124 143 4,700 466 Climbing Boston Center
Wed 02:40:18 PM 43.0122 -73.8939 359° North 125 144 5,100 410 Climbing Boston Center
Wed 02:41:20 PM 43.0475 -73.9033 349° North 127 146 5,500 393 Climbing Boston Center
Wed 02:42:20 PM 43.0828 -73.9069 356° North 130 150 5,900 397 Climbing Boston Center
Wed 02:43:21 PM 43.1183 -73.9133 353° North 133 153 6,300 443 Climbing Boston Center
Wed 02:44:22 PM 43.1600 -73.9172 356° North 136 157 6,800 453 Climbing Boston Center
Wed 02:45:07 PM 43.1892 -73.9181 359° North 143 165 7,100 353 Climbing Boston Center
Wed 02:46:04 PM 43.2222 -73.9275 348° North 137 158 7,400 356 Climbing Boston Center
Wed 02:47:05 PM 43.2658 -73.9314 356° North 143 165 7,800 397 Climbing Boston Center
Wed 02:48:05 PM 43.3075 -73.9381 353° North 143 165 8,200 397 Climbing Boston Center
Wed 02:49:06 PM 43.3386 -73.9644 328° Northwest 143 165 8,600 344 Climbing Boston Center
Wed 02:50:07 PM 43.3692 -73.9994 320° Northwest 143 165 8,900 198 Climbing Boston Center
Wed 02:51:07 PM 43.4000 -74.0317 323° Northwest 143 165 9,000 51 Climbing Boston Center
Wed 02:52:04 PM 43.4350 -74.0697 322° Northwest 143 165 9,000  Level Boston Center
Wed 02:53:05 PM 43.4700 -74.1081 322° Northwest 157 181 9,000  Level Boston Center
Wed 02:54:06 PM 43.5067 -74.1492 321° Northwest 162 186 9,000  Level Boston Center
Wed 02:55:07 PM 43.5417 -74.1872 322° Northwest 162 186 9,000  Level Boston Center
Wed 02:56:05 PM 43.5744 -74.2225 322° Northwest 157 181 9,000  Level Boston Center
Wed 02:57:05 PM 43.6092 -74.2581 323° Northwest 157 181 9,000  Level Boston Center
Wed 02:58:05 PM 43.6381 -74.2906 321° Northwest 157 181 9,000  Level Boston Center
Wed 02:59:06 PM 43.6708 -74.3258 322° Northwest 157 181 9,000  Level Boston Center
Wed 03:00:04 PM 43.7014 -74.3614 320° Northwest 152 175 9,000  Level Boston Center
Wed 03:01:05 PM 43.7319 -74.3969 320° Northwest 152 175 9,000 49 Level Boston Center
Wed 03:02:06 PM 43.7647 -74.4325 322° Northwest 152 175 9,100 50 Climbing Boston Center
Wed 03:03:06 PM 43.7933 -74.4650 321° Northwest 152 175 9,100  Level Boston Center
Wed 03:04:08 PM 43.8242 -74.4978 323° Northwest 152 175 9,100  Level Boston Center
Wed 03:05:06 PM 43.8567 -74.5333 322° Northwest 152 175 9,100  Level Boston Center
Wed 03:06:06 PM 43.8894 -74.5692 322° Northwest 152 175 9,100 -50 Level Boston Center
Wed 03:07:05 PM 43.9222 -74.6047 322° Northwest 152 175 9,000 -50 Descending Boston Center
Wed 03:08:05 PM 43.9547 -74.6406 322° Northwest 152 175 9,000  Level Boston Center
Wed 03:09:06 PM 43.9853 -74.6764 320° Northwest 152 175 9,000 49 Level Boston Center
Wed 03:10:07 PM 44.0181 -74.7094 324° Northwest 152 175 9,100 49 Climbing Boston Center
Wed 03:11:08 PM 44.0506 -74.7481 320° Northwest 152 175 9,100 -353 Level Boston Center
Wed 03:12:06 PM 44.0853 -74.7869 321° Northwest 152 175 8,400 -605 Descending Boston Center
Wed 03:13:07 PM 44.1239 -74.8292 322° Northwest 165 190 7,900 -496 Descending Boston Center
Wed 03:14:07 PM 44.1628 -74.8711 322° Northwest 170 196 7,400 -559 Descending Boston Center
Wed 03:15:05 PM 44.2014 -74.9133 322° Northwest 175 201 6,800 -605 Descending Boston Center
Wed 03:16:06 PM 44.2400 -74.9556 322° Northwest 175 201 6,200 -344 Descending Boston Center
Wed 03:17:07 PM 44.2789 -74.9947 324° Northwest 175 201 6,100 -98 Descending Boston Center
Wed 03:18:08 PM 44.3111 -75.0367 317° Northwest 169 194 6,000 -407 Descending Boston Center
Wed 03:19:05 PM 44.3544 -75.0589 340° North 164 189 5,300 -712 Descending Boston Center
Wed 03:20:06 PM 44.3953 -75.0986 325° Northwest 172 198 4,600 -689 Descending Boston Center

Login

Don't have an account? Register now (free) for customized features, flight alerts, and more!